createdAt,value
2023-05-02T00:02:33.976Z,100.00
2023-05-02T00:07:35.996Z,100.00
2023-05-02T00:12:37.440Z,100.00
2023-05-02T00:17:42.312Z,100.00
2023-05-02T00:22:43.798Z,100.00
2023-05-02T00:27:45.231Z,100.00
2023-05-02T00:32:46.702Z,100.00
2023-05-02T00:37:48.236Z,100.00
2023-05-02T00:42:49.647Z,100.00
2023-05-02T00:47:51.142Z,100.00
2023-05-02T00:52:55.255Z,100.00
2023-05-02T00:57:56.759Z,100.00
2023-05-02T01:03:17.138Z,100.00
2023-05-02T01:08:43.694Z,100.00
2023-05-02T01:13:46.954Z,100.00
2023-05-02T01:18:50.201Z,100.00
2023-05-02T01:24:10.641Z,100.00
2023-05-02T01:29:15.087Z,100.00
2023-05-02T01:34:19.020Z,100.00
2023-05-02T01:39:22.664Z,100.00
2023-05-02T01:44:25.386Z,100.00
2023-05-02T01:49:27.161Z,100.00
2023-05-02T01:54:29.504Z,100.00
2023-05-02T01:59:34.048Z,100.00
2023-05-02T02:04:38.835Z,100.00
2023-05-02T02:09:41.438Z,100.00
2023-05-02T02:14:49.188Z,100.00
2023-05-02T02:19:55.618Z,100.00
2023-05-02T02:24:58.802Z,100.00
2023-05-02T02:30:01.260Z,100.00
2023-05-02T02:35:03.751Z,100.00
2023-05-02T02:40:12.282Z,100.00
2023-05-02T02:45:16.660Z,100.00
2023-05-02T02:50:46.326Z,100.00
2023-05-02T02:56:02.287Z,100.00
2023-05-02T03:01:06.340Z,100.00
2023-05-02T03:06:08.036Z,100.00
2023-05-02T03:11:10.654Z,100.00
2023-05-02T03:16:21.647Z,100.00
2023-05-02T03:21:23.522Z,100.00
2023-05-02T03:26:25.574Z,100.00
2023-05-02T03:31:27.359Z,100.00
2023-05-02T03:36:29.341Z,100.00
2023-05-02T03:41:31.335Z,100.00
2023-05-02T03:46:38.954Z,100.00
2023-05-02T03:51:45.006Z,100.00
2023-05-02T03:56:48.038Z,100.00
2023-05-02T04:02:01.032Z,100.00
2023-05-02T04:07:13.012Z,100.00
2023-05-02T04:12:15.602Z,100.00
2023-05-02T04:17:21.522Z,100.00
2023-05-02T04:22:24.862Z,100.00
2023-05-02T04:27:31.220Z,100.00
2023-05-02T04:32:33.969Z,100.00
2023-05-02T04:37:36.622Z,100.00
2023-05-02T04:42:39.016Z,100.00
2023-05-02T04:47:53.424Z,100.00
2023-05-02T04:52:55.479Z,100.00
2023-05-02T04:57:57.152Z,100.00
2023-05-02T05:03:01.694Z,100.00
2023-05-02T05:08:04.323Z,100.00
2023-05-02T05:13:09.135Z,100.00
2023-05-02T05:18:10.749Z,100.00
2023-05-02T05:23:12.564Z,100.00
2023-05-02T05:28:14.261Z,100.00
2023-05-02T05:33:16.068Z,100.00
2023-05-02T05:38:18.461Z,100.00
2023-05-02T05:43:21.666Z,100.00
2023-05-02T05:48:23.509Z,100.00
2023-05-02T05:53:25.292Z,100.00
2023-05-02T05:58:26.877Z,100.00
2023-05-02T06:03:31.198Z,100.00
2023-05-02T06:08:32.958Z,100.00
2023-05-02T06:13:34.468Z,100.00
2023-05-02T06:18:36.120Z,100.00
2023-05-02T06:23:40.541Z,100.00
2023-05-02T06:28:42.024Z,100.00
2023-05-02T06:33:43.439Z,100.00
2023-05-02T06:38:44.893Z,100.00
2023-05-02T06:43:46.339Z,100.00
2023-05-02T06:48:48.905Z,100.00
2023-05-02T06:53:50.391Z,100.00
2023-05-02T07:04:15.461Z,100.00
2023-05-02T07:09:16.945Z,100.00
2023-05-02T07:14:18.355Z,100.00
2023-05-02T07:19:19.753Z,100.00
2023-05-02T07:24:21.167Z,100.00
2023-05-02T07:29:22.644Z,100.00
2023-05-02T07:34:24.055Z,100.00
2023-05-02T07:39:25.665Z,100.00
2023-05-02T07:44:27.098Z,100.00
2023-05-02T07:49:28.711Z,97.87
2023-05-02T07:54:30.124Z,93.33
2023-05-02T07:59:31.535Z,91.74
2023-05-02T08:04:33.423Z,89.57
2023-05-02T08:09:34.882Z,88.83
2023-05-02T08:14:36.386Z,89.50
2023-05-02T08:19:38.227Z,85.56
2023-05-02T08:24:39.689Z,82.95
2023-05-02T08:29:41.099Z,85.26
2023-05-02T08:34:42.549Z,85.04
2023-05-02T08:39:44.316Z,70.66
2023-05-02T08:44:46.217Z,68.19
2023-05-02T08:49:49.197Z,69.13
2023-05-02T08:54:51.375Z,76.53
2023-05-02T08:59:52.999Z,84.29
2023-05-02T09:04:57.304Z,91.55
2023-05-02T09:09:58.748Z,69.56
2023-05-02T09:15:14.235Z,62.34
2023-05-02T09:20:17.024Z,70.25
2023-05-02T09:25:20.142Z,77.84
2023-05-02T09:30:23.892Z,76.17
2023-05-02T09:35:25.320Z,76.31
2023-05-02T09:40:26.729Z,72.93
2023-05-02T09:45:28.154Z,65.79
2023-05-02T09:50:37.440Z,64.33
2023-05-02T09:55:39.333Z,71.60
2023-05-02T10:00:44.865Z,79.98
2023-05-02T10:05:47.497Z,85.24
2023-05-02T10:10:57.990Z,79.71
2023-05-02T10:16:02.407Z,74.23
2023-05-02T10:21:11.605Z,69.42
2023-05-02T10:26:15.553Z,63.42
2023-05-02T10:31:18.849Z,61.50
2023-05-02T10:36:22.053Z,70.78
2023-05-02T10:41:29.061Z,71.84
2023-05-02T10:46:34.688Z,68.41
2023-05-02T10:51:37.634Z,61.86
2023-05-02T10:57:06.381Z,66.02
2023-05-02T11:02:23.303Z,73.59
2023-05-02T11:07:25.068Z,81.79
2023-05-02T11:12:46.372Z,79.86
2023-05-02T11:17:58.500Z,74.25
2023-05-02T11:23:20.917Z,68.84
2023-05-02T11:28:37.677Z,66.75
2023-05-02T11:33:39.169Z,68.51
2023-05-02T11:38:40.584Z,65.17
2023-05-02T11:43:42.005Z,63.41
2023-05-02T11:48:43.502Z,65.58
2023-05-02T11:53:44.940Z,66.42
2023-05-02T11:58:58.375Z,61.44
2023-05-02T12:04:02.562Z,61.23
2023-05-02T12:09:13.588Z,60.78
2023-05-02T12:14:15.064Z,61.22
2023-05-02T12:19:16.532Z,61.91
2023-05-02T12:24:18.236Z,58.71
2023-05-02T12:29:19.642Z,56.37
2023-05-02T12:34:37.026Z,56.17
2023-05-02T12:39:42.630Z,54.43
2023-05-02T12:44:46.456Z,54.73
2023-05-02T12:50:00.321Z,54.27
2023-05-02T12:55:22.977Z,56.49
2023-05-02T13:00:24.432Z,59.10
2023-05-02T13:05:25.922Z,63.58
2023-05-02T13:10:27.736Z,64.39
2023-05-02T13:15:29.181Z,62.51
2023-05-02T13:20:30.643Z,60.13
2023-05-02T13:25:32.045Z,56.96
2023-05-02T13:30:33.456Z,54.97
2023-05-02T13:35:35.477Z,54.80
2023-05-02T13:40:37.046Z,55.09
2023-05-02T13:45:38.532Z,55.55
2023-05-02T13:50:40.332Z,56.06
2023-05-02T13:55:41.795Z,58.89
2023-05-02T14:00:43.263Z,60.45
2023-05-02T14:05:44.668Z,63.88
2023-05-02T14:10:46.062Z,63.90
2023-05-02T14:15:47.593Z,59.73
2023-05-02T14:20:49.074Z,59.42
2023-05-02T14:25:50.476Z,60.28
2023-05-02T14:30:51.888Z,58.94
2023-05-02T14:35:53.326Z,56.62
2023-05-02T14:40:54.757Z,54.51
2023-05-02T14:45:56.344Z,54.30
2023-05-02T14:50:57.767Z,52.04
2023-05-02T14:55:59.173Z,51.84
2023-05-02T15:01:00.606Z,53.73
2023-05-02T15:06:02.152Z,55.36
2023-05-02T15:11:03.629Z,56.29
2023-05-02T15:16:05.374Z,56.23
2023-05-02T15:21:06.806Z,56.13
2023-05-02T15:26:08.231Z,61.55
2023-05-02T15:31:09.667Z,65.73
2023-05-02T15:36:11.155Z,64.60
2023-05-02T15:41:12.653Z,62.64
2023-05-02T15:46:14.115Z,59.78
2023-05-02T15:51:15.660Z,57.82
2023-05-02T15:56:17.650Z,57.18
2023-05-02T16:01:19.160Z,57.98
2023-05-02T16:06:20.609Z,57.39
2023-05-02T16:11:22.023Z,56.60
2023-05-02T16:16:23.509Z,55.98
2023-05-02T16:21:25.019Z,54.95
2023-05-02T16:26:28.109Z,54.41
2023-05-02T16:31:30.344Z,55.20
2023-05-02T16:36:31.791Z,55.73
2023-05-02T16:41:34.741Z,56.05
2023-05-02T16:46:36.185Z,56.26
2023-05-02T16:51:37.668Z,56.39
2023-05-02T16:56:40.763Z,57.44
2023-05-02T17:01:43.485Z,59.07
2023-05-02T17:06:44.950Z,61.74
2023-05-02T17:11:46.418Z,63.19
2023-05-02T17:16:47.932Z,64.38
2023-05-02T17:21:49.527Z,64.48
2023-05-02T17:26:51.990Z,61.59
2023-05-02T17:31:53.461Z,61.47
2023-05-02T17:36:54.898Z,61.35
2023-05-02T17:41:56.340Z,62.76
2023-05-02T17:46:58.134Z,63.02
2023-05-02T17:51:59.538Z,62.92
2023-05-02T17:57:00.989Z,64.28
2023-05-02T18:02:02.584Z,65.14
2023-05-02T18:07:05.866Z,67.16
2023-05-02T18:12:07.805Z,69.47
2023-05-02T18:17:09.971Z,72.19
2023-05-02T18:22:11.648Z,73.90
2023-05-02T18:27:13.169Z,75.58
2023-05-02T18:32:15.174Z,79.93
2023-05-02T18:37:16.618Z,82.38
2023-05-02T18:42:18.044Z,86.32
2023-05-02T18:47:19.963Z,88.40
2023-05-02T18:52:21.452Z,92.94
2023-05-02T18:57:22.863Z,97.74
2023-05-02T19:02:24.411Z,100.00
2023-05-02T19:07:25.918Z,100.00
2023-05-02T19:12:27.629Z,100.00
2023-05-02T19:17:29.051Z,100.00
2023-05-02T19:22:30.760Z,100.00
2023-05-02T19:27:32.198Z,100.00
2023-05-02T19:32:33.648Z,100.00
2023-05-02T19:37:35.267Z,100.00
2023-05-02T19:42:36.675Z,100.00
2023-05-02T19:47:38.149Z,100.00
2023-05-02T19:52:39.608Z,100.00
2023-05-02T19:57:41.016Z,100.00
2023-05-02T20:02:42.533Z,100.00
2023-05-02T20:07:44.003Z,100.00
2023-05-02T20:12:45.715Z,100.00
2023-05-02T20:17:47.121Z,100.00
2023-05-02T20:22:48.583Z,100.00
2023-05-02T20:27:51.194Z,100.00
2023-05-02T20:32:52.756Z,100.00
2023-05-02T20:37:54.221Z,100.00
2023-05-02T20:42:55.648Z,100.00
2023-05-02T20:47:57.126Z,100.00
2023-05-02T20:52:58.594Z,100.00
2023-05-02T20:58:00.032Z,100.00
2023-05-02T21:03:01.515Z,100.00
2023-05-02T21:08:03.048Z,100.00
2023-05-02T21:13:04.513Z,100.00
2023-05-02T21:18:06.682Z,100.00
2023-05-02T21:23:08.524Z,100.00
2023-05-02T21:28:10.882Z,100.00
2023-05-02T21:33:12.362Z,100.00
2023-05-02T21:38:13.791Z,100.00
2023-05-02T21:43:15.260Z,100.00
2023-05-02T21:48:17.588Z,100.00
2023-05-02T21:53:19.026Z,100.00
2023-05-02T21:58:20.448Z,100.00
2023-05-02T22:03:22.503Z,100.00
2023-05-02T22:08:23.978Z,100.00
2023-05-02T22:13:25.423Z,100.00
2023-05-02T22:18:26.891Z,100.00
2023-05-02T22:23:28.335Z,100.00
2023-05-02T22:28:29.859Z,100.00
2023-05-02T22:33:31.284Z,100.00
2023-05-02T22:38:32.733Z,100.00
2023-05-02T22:43:34.151Z,100.00
2023-05-02T22:48:35.558Z,100.00
2023-05-02T22:53:37.009Z,100.00
2023-05-02T22:58:38.451Z,100.00
2023-05-02T23:03:40.072Z,100.00
2023-05-02T23:08:41.636Z,100.00
2023-05-02T23:13:43.061Z,100.00
2023-05-02T23:18:44.541Z,100.00
2023-05-02T23:23:45.956Z,100.00
2023-05-02T23:28:47.351Z,100.00
2023-05-02T23:33:48.877Z,100.00
2023-05-02T23:38:50.325Z,100.00
2023-05-02T23:43:51.754Z,100.00
2023-05-02T23:48:53.165Z,100.00
2023-05-02T23:53:54.807Z,100.00
2023-05-02T23:58:56.197Z,100.00
